Time;durP1;ratioP1;P1;durP2;ratioP2;P2;SDS_P1;SDS_P2;PMS_P1;PMS_P2;Temp;Humidity;BMP_temperature;BMP_pressure;BME280_temperature;BME280_humidity;BME280_pressure;Samples;Min_cycle;Max_cycle;Signal;HPM_P1;HPM_P2
2021/07/24 00:00:41;;;;;;;12.55;9.25;;;18.20;98.30;;;;;;5017839;28;20875;-44
2021/07/24 00:03:06;;;;;;;11.02;9.02;;;18.20;98.30;;;;;;5009391;28;20525;-44
2021/07/24 00:05:32;;;;;;;11.07;8.25;;;18.20;98.40;;;;;;5019322;28;20034;-42
2021/07/24 00:07:58;;;;;;;11.77;9.07;;;18.10;98.40;;;;;;5008939;28;20037;-42
2021/07/24 00:10:23;;;;;;;10.02;8.40;;;18.10;98.50;;;;;;5019546;28;20468;-43
2021/07/24 00:12:52;;;;;;;11.05;8.88;;;18.10;98.60;;;;;;5009592;28;20018;-42
2021/07/24 00:15:17;;;;;;;9.50;7.97;;;18.00;98.60;;;;;;5020503;28;20035;-43
2021/07/24 00:17:43;;;;;;;9.75;8.20;;;18.00;98.60;;;;;;5022005;28;20021;-44
2021/07/24 00:20:09;;;;;;;11.85;9.57;;;18.00;98.70;;;;;;5016774;28;20381;-44
2021/07/24 00:22:35;;;;;;;11.05;8.88;;;18.00;98.80;;;;;;5027920;28;20060;-42
2021/07/24 00:25:01;;;;;;;12.13;8.73;;;18.00;98.90;;;;;;5019100;28;20036;-44
2021/07/24 00:27:26;;;;;;;10.88;9.00;;;17.90;99.20;;;;;;5025126;28;20026;-43
2021/07/24 00:29:54;;;;;;;12.02;9.27;;;17.90;99.10;;;;;;5020485;28;20026;-40
2021/07/24 00:32:19;;;;;;;11.93;9.43;;;17.90;99.10;;;;;;5023400;28;20373;-43
2021/07/24 00:34:45;;;;;;;15.52;10.48;;;17.80;99.20;;;;;;5023392;28;20085;-42
2021/07/24 00:37:10;;;;;;;12.48;9.27;;;17.80;99.30;;;;;;5020308;28;20022;-43
2021/07/24 00:39:36;;;;;;;12.60;9.40;;;17.80;99.30;;;;;;5024733;28;20025;-42
2021/07/24 00:42:18;;;;;;;12.18;9.52;;;17.80;99.40;;;;;;5017027;28;20109;-44
2021/07/24 00:44:45;;;;;;;10.75;8.60;;;17.70;99.40;;;;;;5026203;28;20111;-41
2021/07/24 00:47:19;;;;;;;11.80;9.00;;;17.70;99.40;;;;;;5018035;28;20017;-42
2021/07/24 00:49:46;;;;;;;11.77;9.40;;;17.70;99.50;;;;;;5026251;28;20121;-41
2021/07/24 00:52:13;;;;;;;11.38;8.63;;;17.70;99.50;;;;;;5016766;28;20021;-42
2021/07/24 00:54:39;;;;;;;11.98;8.75;;;17.70;99.50;;;;;;5026208;28;20508;-44
2021/07/24 00:57:13;;;;;;;11.05;9.55;;;17.70;99.60;;;;;;5016706;28;20469;-43
2021/07/24 00:59:39;;;;;;;14.18;9.60;;;17.70;99.60;;;;;;5030288;28;20232;-43
2021/07/24 01:02:05;;;;;;;12.27;10.20;;;17.70;99.70;;;;;;5020060;28;20021;-44
2021/07/24 01:04:30;;;;;;;12.48;9.63;;;17.70;99.70;;;;;;5030784;28;20033;-44
2021/07/24 01:06:56;;;;;;;12.90;10.57;;;17.70;99.80;;;;;;5019325;28;20063;-42
2021/07/24 01:09:24;;;;;;;11.95;9.75;;;17.60;99.80;;;;;;5031539;28;20366;-43
2021/07/24 01:12:01;;;;;;;11.13;9.55;;;17.60;99.80;;;;;;5020122;28;20022;-44
2021/07/24 01:14:30;;;;;;;11.15;8.70;;;17.60;99.90;;;;;;4992531;28;20162;-43
2021/07/24 01:16:55;;;;;;;9.82;8.05;;;17.50;99.90;;;;;;5011702;28;20021;-44
2021/07/24 01:19:21;;;;;;;9.75;7.85;;;17.50;99.90;;;;;;5011929;28;20026;-41
2021/07/24 01:21:47;;;;;;;9.48;7.65;;;17.50;99.90;;;;;;5015780;28;20014;-42
2021/07/24 01:24:13;;;;;;;9.18;8.05;;;17.40;99.90;;;;;;5026928;28;20030;-40
2021/07/24 01:26:43;;;;;;;11.27;8.55;;;17.40;99.90;;;;;;5025530;28;20104;-42
2021/07/24 01:29:16;;;;;;;13.10;9.20;;;17.30;99.90;;;;;;5025780;28;20412;-43
2021/07/24 01:31:42;;;;;;;10.40;9.30;;;17.30;99.90;;;;;;5025532;28;20046;-43
2021/07/24 01:34:11;;;;;;;11.35;8.80;;;17.30;99.90;;;;;;5024087;28;20030;-41
2021/07/24 01:36:37;;;;;;;12.07;9.43;;;17.30;99.90;;;;;;5028267;28;20526;-43
2021/07/24 01:39:03;;;;;;;12.55;9.80;;;17.30;99.90;;;;;;5021635;28;20025;-42
2021/07/24 01:41:29;;;;;;;8.63;7.72;;;17.20;99.90;;;;;;5029244;28;20021;-44
2021/07/24 01:43:54;;;;;;;12.90;8.52;;;17.20;99.90;;;;;;5020670;28;20469;-43
2021/07/24 01:46:19;;;;;;;13.68;9.50;;;17.20;99.90;;;;;;5029531;28;20424;-43
2021/07/24 01:54:26;;;;;;;10.27;8.85;;;17.10;99.90;;;;;;5019032;28;20040;-43
2021/07/24 01:56:54;;;;;;;13.30;9.70;;;17.10;99.90;;;;;;5013000;28;20037;-40
2021/07/24 01:59:25;;;;;;;13.13;10.00;;;17.00;99.90;;;;;;5021695;28;20037;-42
2021/07/24 02:01:55;;;;;;;13.85;9.90;;;17.00;99.90;;;;;;5013052;28;20466;-40
2021/07/24 02:04:26;;;;;;;13.48;9.38;;;17.00;99.90;;;;;;5018612;28;20037;-42
2021/07/24 02:06:51;;;;;;;11.77;9.60;;;17.00;99.90;;;;;;5010967;28;20528;-44
2021/07/24 02:09:17;;;;;;;13.40;9.85;;;17.00;99.90;;;;;;5023564;28;20042;-41
2021/07/24 02:11:46;;;;;;;12.70;9.93;;;16.90;99.90;;;;;;5009832;28;20065;-41
2021/07/24 02:14:12;;;;;;;13.13;10.43;;;16.90;99.90;;;;;;5021957;28;20594;-43
2021/07/24 02:16:40;;;;;;;11.43;9.25;;;16.80;99.90;;;;;;5013854;28;20501;-44
2021/07/24 02:19:06;;;;;;;12.25;9.45;;;16.80;99.90;;;;;;5018924;28;20030;-44
2021/07/24 02:21:32;;;;;;;12.30;8.50;;;16.80;99.90;;;;;;5028532;28;20025;-41
2021/07/24 02:23:58;;;;;;;11.95;9.60;;;16.80;99.90;;;;;;5021434;28;20481;-42
2021/07/24 02:26:26;;;;;;;11.95;9.80;;;16.70;99.90;;;;;;5026685;28;20167;-43
2021/07/24 02:28:54;;;;;;;14.68;10.38;;;16.80;99.90;;;;;;5022473;28;20148;-41
2021/07/24 02:31:20;;;;;;;12.80;10.38;;;16.70;99.90;;;;;;5025796;28;20052;-44
2021/07/24 02:33:45;;;;;;;14.48;10.55;;;16.70;99.90;;;;;;5025062;28;20449;-40
2021/07/24 02:36:11;;;;;;;14.02;9.40;;;16.70;99.90;;;;;;5022245;28;20484;-43
2021/07/24 02:38:39;;;;;;;13.73;10.40;;;16.70;99.90;;;;;;5026787;28;20116;-40
2021/07/24 02:41:05;;;;;;;14.73;10.00;;;16.70;99.90;;;;;;5020865;28;20402;-40
2021/07/24 02:43:33;;;;;;;13.00;9.32;;;16.70;99.90;;;;;;5027895;28;20042;-44
2021/07/24 02:45:58;;;;;;;12.45;9.30;;;16.60;99.90;;;;;;5019502;28;20009;-41
2021/07/24 02:48:24;;;;;;;12.85;10.30;;;16.60;99.90;;;;;;5028646;28;20388;-44
2021/07/24 02:50:49;;;;;;;11.95;8.93;;;16.60;99.90;;;;;;5018606;28;20013;-44
2021/07/24 02:53:18;;;;;;;14.10;10.13;;;16.60;99.90;;;;;;5030061;28;20496;-44
2021/07/24 02:55:43;;;;;;;12.55;10.25;;;16.50;99.90;;;;;;5015489;28;20044;-41
2021/07/24 02:58:09;;;;;;;11.13;9.20;;;16.50;99.90;;;;;;5030601;28;20037;-44
2021/07/24 03:00:34;;;;;;;12.90;9.73;;;16.50;99.90;;;;;;5017113;28;20504;-42
2021/07/24 03:03:06;;;;;;;12.45;9.55;;;16.50;99.90;;;;;;5029577;28;20026;-44
2021/07/24 03:05:31;;;;;;;12.32;9.65;;;16.50;99.90;;;;;;5017134;28;20034;-44
2021/07/24 03:07:57;;;;;;;13.00;9.35;;;16.50;99.90;;;;;;5028222;28;20037;-43
2021/07/24 03:10:22;;;;;;;10.98;9.15;;;16.40;99.90;;;;;;5020408;28;20332;-41
2021/07/24 03:12:48;;;;;;;12.48;9.40;;;16.40;99.90;;;;;;5026158;28;20029;-44
2021/07/24 03:15:14;;;;;;;14.85;9.95;;;16.40;99.90;;;;;;5023601;28;20568;-41
2021/07/24 03:17:39;;;;;;;12.32;9.15;;;16.40;99.90;;;;;;5011398;28;20084;-41
2021/07/24 03:20:06;;;;;;;12.32;9.48;;;16.40;99.90;;;;;;5012447;28;20030;-43
2021/07/24 03:22:32;;;;;;;13.00;9.85;;;16.40;99.90;;;;;;5018238;28;20022;-44
2021/07/24 03:25:04;;;;;;;12.65;9.65;;;16.30;99.90;;;;;;5010609;28;20045;-41
2021/07/24 03:27:30;;;;;;;14.13;9.73;;;16.40;99.90;;;;;;5007379;28;20029;-42
2021/07/24 03:29:58;;;;;;;14.10;10.02;;;16.40;99.90;;;;;;5027423;28;20116;-44
2021/07/24 03:32:24;;;;;;;15.05;10.02;;;16.30;99.90;;;;;;5017432;28;20453;-42
2021/07/24 03:34:49;;;;;;;14.55;10.25;;;16.30;99.90;;;;;;5029408;28;20068;-42
2021/07/24 03:37:15;;;;;;;11.50;9.10;;;16.30;99.90;;;;;;5016847;28;20025;-44
2021/07/24 03:39:40;;;;;;;12.35;9.32;;;16.30;99.90;;;;;;5028772;28;20124;-43
2021/07/24 03:42:08;;;;;;;14.05;9.70;;;16.20;99.90;;;;;;5016416;28;20125;-39
2021/07/24 03:44:39;;;;;;;11.40;9.45;;;16.20;99.90;;;;;;5028528;28;20039;-43
2021/07/24 03:47:05;;;;;;;13.85;9.38;;;16.20;99.90;;;;;;5016285;28;20168;-41
2021/07/24 03:49:31;;;;;;;12.00;9.55;;;16.20;99.90;;;;;;5028404;28;20528;-40
2021/07/24 03:51:56;;;;;;;12.15;9.88;;;16.20;99.90;;;;;;5018498;28;20026;-42
2021/07/24 03:54:22;;;;;;;11.60;9.52;;;16.20;99.90;;;;;;5025055;28;20056;-41
2021/07/24 03:56:50;;;;;;;12.40;9.38;;;16.20;99.90;;;;;;5021964;28;20060;-41
2021/07/24 03:59:16;;;;;;;14.07;10.15;;;16.20;99.90;;;;;;5023010;28;20435;-44
2021/07/24 04:01:43;;;;;;;14.98;11.35;;;16.20;99.90;;;;;;5023726;28;20018;-44
2021/07/24 04:04:09;;;;;;;13.15;9.63;;;16.20;99.90;;;;;;5021078;28;20026;-40
2021/07/24 04:06:34;;;;;;;12.88;10.70;;;16.30;99.90;;;;;;5024926;28;20060;-43
2021/07/24 04:09:01;;;;;;;12.48;10.15;;;16.20;99.90;;;;;;5018728;28;20037;-39
2021/07/24 04:11:28;;;;;;;14.20;10.15;;;16.30;99.90;;;;;;5026874;28;20071;-40
2021/07/24 04:13:57;;;;;;;13.90;10.60;;;16.30;99.90;;;;;;5017716;28;20362;-40
2021/07/24 04:16:23;;;;;;;14.65;10.68;;;16.30;99.90;;;;;;5026749;28;20373;-39
2021/07/24 04:18:52;;;;;;;14.55;10.32;;;16.30;99.90;;;;;;5017257;28;20030;-43
2021/07/24 04:21:17;;;;;;;13.48;9.48;;;16.30;99.90;;;;;;5028256;28;20459;-37
2021/07/24 04:23:43;;;;;;;13.35;10.13;;;16.40;99.90;;;;;;5015627;28;20025;-40
2021/07/24 04:26:09;;;;;;;13.85;9.65;;;16.40;99.90;;;;;;5028854;28;20025;-39
2021/07/24 04:28:35;;;;;;;12.40;9.05;;;16.40;99.90;;;;;;5015126;28;20043;-42
2021/07/24 04:31:00;;;;;;;12.20;9.30;;;16.50;99.90;;;;;;5028041;28;20113;-41
2021/07/24 04:33:26;;;;;;;14.63;9.60;;;16.50;99.90;;;;;;5016940;28;20488;-44
2021/07/24 04:35:51;;;;;;;11.00;8.38;;;16.60;99.90;;;;;;5026549;28;20316;-44
2021/07/24 04:38:18;;;;;;;9.95;7.75;;;16.70;99.90;;;;;;5020586;28;20076;-42
2021/07/24 04:40:45;;;;;;;8.93;8.02;;;16.70;99.90;;;;;;5024194;28;20441;-39
2021/07/24 04:43:10;;;;;;;10.98;8.35;;;16.80;99.90;;;;;;5022271;28;20041;-44
2021/07/24 04:45:45;;;;;;;10.10;8.07;;;16.90;99.90;;;;;;5021211;28;20060;-43
2021/07/24 04:48:11;;;;;;;10.68;8.30;;;16.90;99.90;;;;;;5023505;28;20025;-43
2021/07/24 04:50:48;;;;;;;11.13;8.40;;;17.00;99.90;;;;;;5019630;28;20034;-44
2021/07/24 04:53:15;;;;;;;10.70;8.25;;;17.00;99.90;;;;;;5024975;28;20389;-42
2021/07/24 04:55:41;;;;;;;12.27;8.85;;;17.00;99.90;;;;;;5018206;28;20028;-42
2021/07/24 04:58:08;;;;;;;10.18;8.35;;;17.10;99.90;;;;;;5025938;28;20038;-45
2021/07/24 05:00:45;;;;;;;10.55;8.13;;;17.10;99.90;;;;;;5016632;28;20473;-42
2021/07/24 05:03:15;;;;;;;10.77;8.73;;;17.10;99.90;;;;;;5026257;28;20080;-43
2021/07/24 05:05:44;;;;;;;10.50;8.63;;;17.20;99.90;;;;;;5016468;28;20438;-42
2021/07/24 05:08:13;;;;;;;10.98;8.40;;;17.20;99.90;;;;;;5026251;28;20496;-43
2021/07/24 05:10:39;;;;;;;11.55;7.93;;;17.20;99.90;;;;;;5016528;28;20041;-42
2021/07/24 05:13:07;;;;;;;10.73;7.93;;;17.30;99.90;;;;;;5028358;28;20010;-43
2021/07/24 05:15:33;;;;;;;11.35;9.00;;;17.30;99.90;;;;;;5014392;28;20562;-42
2021/07/24 05:17:59;;;;;;;9.13;7.95;;;17.30;99.90;;;;;;5015960;28;20026;-44
2021/07/24 05:20:29;;;;;;;9.63;8.35;;;17.40;99.90;;;;;;5019361;28;20033;-43
2021/07/24 05:22:57;;;;;;;12.82;8.63;;;17.40;99.90;;;;;;5008870;28;20080;-43
2021/07/24 05:25:23;;;;;;;10.27;8.52;;;17.50;99.90;;;;;;5019608;28;20026;-43
2021/07/24 05:27:49;;;;;;;11.68;8.48;;;17.50;99.90;;;;;;5008470;28;20018;-44
2021/07/24 05:30:18;;;;;;;10.98;7.88;;;17.60;99.90;;;;;;5017920;28;20040;-43
2021/07/24 05:32:43;;;;;;;9.30;7.75;;;17.60;99.90;;;;;;5010792;28;20037;-44
2021/07/24 05:35:15;;;;;;;8.90;7.63;;;17.60;99.90;;;;;;5015354;28;20022;-42
2021/07/24 05:37:40;;;;;;;9.27;7.33;;;17.70;99.90;;;;;;5011504;28;20026;-44
2021/07/24 05:40:15;;;;;;;8.68;7.05;;;17.80;99.90;;;;;;5013374;28;20028;-44
2021/07/24 05:42:41;;;;;;;9.25;7.28;;;17.90;99.90;;;;;;5013546;28;20539;-43
2021/07/24 05:45:07;;;;;;;9.82;7.88;;;18.00;99.90;;;;;;5013636;28;20053;-42
2021/07/24 05:47:35;;;;;;;10.75;7.90;;;18.00;99.90;;;;;;5019153;28;20037;-42
2021/07/24 05:50:03;;;;;;;8.63;7.70;;;18.10;99.90;;;;;;5012442;28;20056;-41
2021/07/24 05:52:28;;;;;;;9.52;8.02;;;18.10;99.90;;;;;;5020663;28;20105;-42
2021/07/24 05:54:54;;;;;;;9.80;8.13;;;18.20;99.90;;;;;;5012504;28;20116;-42
2021/07/24 05:57:19;;;;;;;10.02;7.88;;;18.20;99.90;;;;;;5022114;28;20022;-43
2021/07/24 05:59:45;;;;;;;8.82;6.63;;;18.20;99.90;;;;;;5012156;28;20042;-42
2021/07/24 06:02:12;;;;;;;11.27;8.23;;;18.30;99.90;;;;;;5023009;28;20116;-44
2021/07/24 06:04:44;;;;;;;10.20;8.20;;;18.30;99.90;;;;;;5009787;28;20129;-42
2021/07/24 06:07:10;;;;;;;10.38;8.10;;;18.40;99.90;;;;;;5023038;28;20026;-43
2021/07/24 06:09:35;;;;;;;10.90;9.27;;;18.40;99.90;;;;;;5010077;28;20099;-39
2021/07/24 06:12:01;;;;;;;9.95;8.57;;;18.40;99.90;;;;;;5023716;28;20415;-42
2021/07/24 06:14:27;;;;;;;11.57;8.88;;;18.40;99.90;;;;;;5010588;28;20064;-43
2021/07/24 06:16:53;;;;;;;8.73;7.00;;;18.50;99.90;;;;;;5019843;28;20021;-41
2021/07/24 06:19:19;;;;;;;9.55;7.18;;;18.50;99.90;;;;;;5011176;28;20076;-44
2021/07/24 06:21:48;;;;;;;9.77;7.75;;;18.50;99.90;;;;;;5017915;28;20026;-43
2021/07/24 06:24:14;;;;;;;11.55;8.32;;;18.60;99.90;;;;;;5015022;28;20034;-41
2021/07/24 06:26:40;;;;;;;8.82;7.70;;;18.70;99.90;;;;;;5015989;28;20416;-43
2021/07/24 06:29:06;;;;;;;8.50;7.60;;;18.70;99.90;;;;;;5018001;28;20349;-41
2021/07/24 06:31:34;;;;;;;7.90;7.07;;;18.80;99.90;;;;;;5013454;28;20525;-39
2021/07/24 06:34:02;;;;;;;10.35;8.07;;;18.90;99.90;;;;;;5019558;28;20033;-42
2021/07/24 06:36:28;;;;;;;9.30;7.53;;;18.90;99.90;;;;;;5011454;28;20064;-42
2021/07/24 06:38:53;;;;;;;8.57;7.10;;;19.00;99.90;;;;;;5021309;28;20457;-43
2021/07/24 06:41:30;;;;;;;10.95;8.60;;;19.00;99.90;;;;;;5011669;28;20021;-41
2021/07/24 06:43:56;;;;;;;9.60;8.15;;;19.00;99.90;;;;;;5022417;28;20032;-43
2021/07/24 06:46:22;;;;;;;10.27;8.32;;;19.10;99.90;;;;;;5011385;28;20097;-44
2021/07/24 06:48:47;;;;;;;10.88;8.88;;;19.00;99.90;;;;;;5021618;28;20042;-43
2021/07/24 06:51:13;;;;;;;9.85;7.85;;;19.00;99.90;;;;;;5010722;28;20177;-44
2021/07/24 06:53:38;;;;;;;10.73;8.40;;;19.00;99.90;;;;;;5022692;28;20283;-44
2021/07/24 06:56:04;;;;;;;9.85;8.25;;;19.00;99.90;;;;;;5009807;28;20034;-44
2021/07/24 06:58:31;;;;;;;9.18;7.88;;;19.00;99.90;;;;;;5022859;28;20400;-42
2021/07/24 07:00:57;;;;;;;11.23;8.27;;;19.00;99.90;;;;;;4991211;28;20071;-43
2021/07/24 07:03:23;;;;;;;10.05;8.20;;;19.00;99.90;;;;;;5013302;28;20223;-44
2021/07/24 07:05:49;;;;;;;9.45;7.78;;;19.10;99.90;;;;;;5013085;28;20057;-44
2021/07/24 07:08:15;;;;;;;11.23;8.45;;;19.10;99.90;;;;;;5017782;28;20048;-43
2021/07/24 07:11:05;;;;;;;9.30;8.13;;;19.20;99.90;;;;;;5013843;28;20480;-43
2021/07/24 07:13:31;;;;;;;11.88;7.82;;;19.20;99.90;;;;;;5017736;28;20022;-44
2021/07/24 07:15:57;;;;;;;12.13;8.05;;;19.30;99.90;;;;;;5014598;28;20030;-43
2021/07/24 07:18:23;;;;;;;9.10;7.80;;;19.30;99.90;;;;;;5016026;28;20038;-41
2021/07/24 07:20:49;;;;;;;8.02;7.22;;;19.40;99.90;;;;;;5023288;28;20024;-44
2021/07/24 07:23:15;;;;;;;7.72;7.00;;;19.40;99.90;;;;;;5026579;28;20100;-42
2021/07/24 07:25:43;;;;;;;9.30;7.35;;;19.50;99.90;;;;;;5020406;28;20172;-43
2021/07/24 07:28:09;;;;;;;7.80;6.80;;;19.70;99.90;;;;;;5028216;28;20127;-43
2021/07/24 07:30:34;;;;;;;7.22;6.50;;;19.80;99.90;;;;;;5017370;28;20136;-43
2021/07/24 07:33:03;;;;;;;8.25;6.28;;;19.90;99.90;;;;;;5028544;28;20022;-42
2021/07/24 07:35:28;;;;;;;8.25;6.50;;;20.00;99.80;;;;;;5017667;28;20021;-42
2021/07/24 07:37:56;;;;;;;7.72;6.63;;;20.20;99.90;;;;;;5028954;28;20087;-42
2021/07/24 07:40:24;;;;;;;8.32;7.45;;;20.20;99.60;;;;;;5021465;28;20105;-40
2021/07/24 07:42:50;;;;;;;8.10;7.28;;;20.30;99.50;;;;;;5009965;28;20489;-40
2021/07/24 07:45:16;;;;;;;8.43;7.60;;;20.40;99.40;;;;;;5020876;28;20120;-43
2021/07/24 07:47:41;;;;;;;10.20;7.88;;;20.40;99.30;;;;;;5009255;28;20084;-42
2021/07/24 07:50:11;;;;;;;10.75;8.18;;;20.40;99.10;;;;;;5020433;28;20025;-41
2021/07/24 07:52:36;;;;;;;9.18;7.60;;;20.50;99.00;;;;;;5008692;28;20108;-44
2021/07/24 07:55:03;;;;;;;11.02;7.85;;;20.50;98.90;;;;;;5018843;28;20053;-42
2021/07/24 07:57:29;;;;;;;9.18;6.80;;;20.60;99.00;;;;;;5011637;28;20474;-42
2021/07/24 07:59:58;;;;;;;11.63;7.45;;;20.60;98.90;;;;;;5014938;28;20408;-42
2021/07/24 08:02:23;;;;;;;9.15;8.05;;;20.70;99.10;;;;;;5014108;28;20533;-43
2021/07/24 08:04:49;;;;;;;8.55;7.35;;;20.70;98.70;;;;;;5013834;28;20128;-40
2021/07/24 08:07:16;;;;;;;8.45;7.55;;;20.80;98.60;;;;;;5016871;28;20446;-42
2021/07/24 08:09:41;;;;;;;8.50;6.88;;;20.90;98.60;;;;;;5009258;28;20128;-41
2021/07/24 08:12:07;;;;;;;9.27;7.65;;;21.00;98.60;;;;;;5018196;28;20884;-44
2021/07/24 08:14:32;;;;;;;10.43;7.35;;;21.00;98.60;;;;;;5010060;28;20067;-41
2021/07/24 08:16:58;;;;;;;8.68;7.55;;;21.10;98.40;;;;;;5021322;28;20022;-41
2021/07/24 08:19:23;;;;;;;9.45;8.45;;;21.10;98.30;;;;;;5026117;28;20476;-39
2021/07/24 08:21:52;;;;;;;7.90;7.10;;;21.20;98.30;;;;;;5017439;28;20028;-42
2021/07/24 08:24:17;;;;;;;8.60;7.75;;;21.20;98.30;;;;;;5028365;28;20030;-42
2021/07/24 08:26:43;;;;;;;8.55;7.65;;;21.30;98.20;;;;;;5014894;28;20026;-43
2021/07/24 08:29:08;;;;;;;9.13;7.32;;;21.30;98.10;;;;;;5028918;28;20489;-43
2021/07/24 08:31:36;;;;;;;8.75;6.85;;;21.30;98.20;;;;;;5016201;28;20109;-45
2021/07/24 08:34:02;;;;;;;8.95;6.63;;;21.40;98.20;;;;;;5028680;28;20075;-42
2021/07/24 08:36:30;;;;;;;8.48;6.75;;;21.50;98.50;;;;;;5017816;28;20033;-42
2021/07/24 08:38:56;;;;;;;7.85;6.85;;;21.60;98.20;;;;;;5026698;28;20087;-43
2021/07/24 08:41:21;;;;;;;7.65;6.90;;;21.70;98.10;;;;;;5019931;28;20022;-45
2021/07/24 08:43:47;;;;;;;8.15;6.90;;;21.80;98.00;;;;;;5023458;28;20473;-40
2021/07/24 08:46:13;;;;;;;7.80;6.80;;;21.90;98.00;;;;;;5023957;28;20093;-45
2021/07/24 08:48:40;;;;;;;7.80;7.00;;;22.00;97.80;;;;;;5019552;28;20037;-43
2021/07/24 08:51:07;;;;;;;7.70;6.70;;;22.10;97.80;;;;;;5026661;28;20014;-45
2021/07/24 08:53:39;;;;;;;7.28;6.18;;;22.20;97.70;;;;;;5017669;28;20036;-40
2021/07/24 08:56:13;;;;;;;7.57;6.38;;;22.40;97.50;;;;;;5026481;28;20046;-43
2021/07/24 08:58:41;;;;;;;8.18;6.95;;;22.40;97.40;;;;;;5007059;28;20389;-45
2021/07/24 09:01:16;;;;;;;7.47;6.65;;;22.50;97.30;;;;;;5026930;28;20010;-43
2021/07/24 09:03:50;;;;;;;8.40;7.40;;;22.60;97.10;;;;;;5016382;28;20699;-45
2021/07/24 09:06:29;;;;;;;7.80;7.05;;;22.70;97.00;;;;;;5026631;28;20096;-43
2021/07/24 09:08:56;;;;;;;11.32;7.40;;;22.70;96.90;;;;;;5006126;28;20026;-41
2021/07/24 09:11:22;;;;;;;8.32;6.88;;;22.70;96.70;;;;;;5025881;28;20021;-45
2021/07/24 09:13:48;;;;;;;7.57;6.70;;;22.90;96.70;;;;;;5017370;28;20017;-45
2021/07/24 09:16:13;;;;;;;6.70;6.00;;;22.90;96.60;;;;;;5026920;28;20428;-41
2021/07/24 09:18:41;;;;;;;11.68;7.05;;;23.00;96.90;;;;;;5024304;28;20026;-40
2021/07/24 09:21:07;;;;;;;16.70;7.95;;;23.10;96.60;;;;;;5030854;28;20021;-40
2021/07/24 09:23:39;;;;;;;9.88;7.20;;;23.30;96.70;;;;;;5023429;28;20076;-45
2021/07/24 09:26:05;;;;;;;;;;;23.40;96.40;;;;;;5012634;28;20026;-42
2021/07/24 09:28:33;;;;;;;8.10;6.22;;;23.50;96.30;;;;;;5023919;28;19924;-43
2021/07/24 09:31:18;;;;;;;8.13;7.20;;;23.60;96.30;;;;;;4991671;28;20422;-46
2021/07/24 09:33:54;;;;;;;10.05;6.90;;;23.60;96.00;;;;;;5021397;28;20115;-42
2021/07/24 09:36:33;;;;;;;9.02;6.88;;;23.70;96.00;;;;;;5011126;28;20421;-44
2021/07/24 09:39:16;;;;;;;7.07;6.38;;;23.70;96.10;;;;;;5024223;28;20091;-45
2021/07/24 09:41:44;;;;;;;7.70;6.90;;;23.70;96.10;;;;;;5011675;28;20569;-41
2021/07/24 09:44:10;;;;;;;8.75;7.20;;;23.70;96.00;;;;;;5023366;28;20029;-39
2021/07/24 09:46:36;;;;;;;7.82;7.13;;;23.80;95.90;;;;;;5011213;28;20080;-43
2021/07/24 09:49:14;;;;;;;8.55;7.32;;;23.80;95.80;;;;;;5022405;28;20037;-42
2021/07/24 09:51:45;;;;;;;7.93;6.72;;;23.80;95.80;;;;;;4991080;28;20101;-46
2021/07/24 09:54:25;;;;;;;7.60;6.80;;;23.90;95.90;;;;;;5017257;28;20025;-46
2021/07/24 09:56:51;;;;;;;7.60;6.72;;;23.90;95.90;;;;;;4992125;28;20034;-43
2021/07/24 09:59:24;;;;;;;8.55;6.78;;;23.90;95.90;;;;;;5016182;28;20105;-40
2021/07/24 10:02:04;;;;;;;10.10;7.03;;;24.00;95.80;;;;;;5012383;28;20025;-45
2021/07/24 10:04:32;;;;;;;7.45;6.47;;;24.00;95.70;;;;;;5020504;28;20495;-44
2021/07/24 10:07:08;;;;;;;9.20;6.85;;;24.10;95.70;;;;;;5012448;28;20037;-42
2021/07/24 10:09:36;;;;;;;9.27;7.28;;;24.10;95.70;;;;;;5020153;28;20026;-42
2021/07/24 10:12:08;;;;;;;7.90;7.10;;;24.10;95.70;;;;;;5013364;28;20029;-45
2021/07/24 10:14:38;;;;;;;7.18;6.50;;;24.10;95.70;;;;;;5018135;28;20358;-41
2021/07/24 10:17:03;;;;;;;9.77;7.50;;;24.10;95.60;;;;;;5015306;28;20037;-42
2021/07/24 10:19:32;;;;;;;7.95;7.13;;;24.10;95.60;;;;;;5023424;28;20025;-44
2021/07/24 10:21:59;;;;;;;7.38;6.68;;;24.10;95.60;;;;;;5025518;28;20022;-44
2021/07/24 10:24:25;;;;;;;8.65;6.63;;;24.20;95.70;;;;;;5026111;28;20036;-44
2021/07/24 10:26:58;;;;;;;6.38;5.63;;;24.20;95.70;;;;;;5022247;28;20025;-44
2021/07/24 10:29:38;;;;;;;6.70;5.90;;;24.30;95.80;;;;;;5027324;28;20560;-45
2021/07/24 10:32:13;;;;;;;6.13;5.57;;;24.40;95.80;;;;;;5022346;28;20361;-41
2021/07/24 10:34:50;;;;;;;6.07;5.47;;;24.50;95.90;;;;;;5026466;28;20116;-43
2021/07/24 10:37:42;;;;;;;7.13;6.00;;;24.70;95.90;;;;;;5022484;28;20195;-42
2021/07/24 10:40:17;;;;;;;8.07;7.20;;;24.70;95.90;;;;;;5024411;28;20061;-41
2021/07/24 10:42:50;;;;;;;7.03;5.60;;;24.70;95.90;;;;;;5024774;28;20343;-44
2021/07/24 10:45:31;;;;;;;7.32;6.57;;;24.80;95.90;;;;;;5024924;28;20044;-42
2021/07/24 10:48:21;;;;;;;7.07;6.38;;;24.90;95.90;;;;;;5025134;28;20136;-45
2021/07/24 10:50:50;;;;;;;7.65;6.65;;;24.90;95.90;;;;;;5021462;28;20030;-39
2021/07/24 10:53:15;;;;;;;7.85;7.10;;;24.90;95.90;;;;;;5026436;28;20117;-39
2021/07/24 10:55:43;;;;;;;8.20;7.40;;;24.90;95.90;;;;;;5023141;28;20252;-42
2021/07/24 10:58:09;;;;;;;8.15;7.35;;;24.90;95.90;;;;;;5024284;28;20021;-40
2021/07/24 11:00:51;;;;;;;7.82;7.00;;;24.90;95.90;;;;;;5025513;28;20091;-39
2021/07/24 11:03:37;;;;;;;;;;;24.90;95.90;;;;;;5023796;28;20025;-41
2021/07/24 11:06:29;;;;;;;8.70;7.03;;;24.90;96.00;;;;;;5023449;28;19921;-42
2021/07/24 11:08:57;;;;;;;7.20;6.50;;;24.90;96.00;;;;;;5026334;28;20435;-45
2021/07/24 11:11:39;;;;;;;8.50;7.57;;;24.90;96.00;;;;;;5021318;28;20041;-44
2021/07/24 11:14:04;;;;;;;10.10;8.02;;;24.80;96.00;;;;;;5026867;28;20080;-45
2021/07/24 11:17:04;;;;;;;8.75;7.82;;;24.80;95.90;;;;;;5021503;28;20389;-44
2021/07/24 11:19:30;;;;;;;10.10;7.43;;;24.70;95.90;;;;;;4989577;28;20058;-44
2021/07/24 11:22:16;;;;;;;9.73;8.65;;;24.70;95.90;;;;;;5012823;28;20029;-43
2021/07/24 11:24:49;;;;;;;9.88;8.88;;;24.60;95.80;;;;;;5009930;28;20025;-45
2021/07/24 11:27:15;;;;;;;12.70;10.07;;;24.50;95.60;;;;;;5019343;28;20032;-45
2021/07/24 11:29:40;;;;;;;11.57;9.85;;;24.40;95.50;;;;;;5010583;28;20038;-42
2021/07/24 11:32:07;;;;;;;11.60;9.80;;;24.40;95.50;;;;;;5017221;28;20381;-40
2021/07/24 11:34:35;;;;;;;12.48;9.50;;;24.30;95.50;;;;;;5013546;28;20275;-40
2021/07/24 11:37:01;;;;;;;13.60;9.82;;;24.20;95.40;;;;;;5014659;28;20029;-43
2021/07/24 11:39:30;;;;;;;11.35;8.98;;;24.20;95.50;;;;;;5015228;28;20478;-45
2021/07/24 11:41:56;;;;;;;10.30;8.60;;;24.20;95.60;;;;;;5012039;28;20037;-45
2021/07/24 11:44:30;;;;;;;10.93;9.10;;;24.20;95.90;;;;;;5016852;28;20512;-45
2021/07/24 11:47:03;;;;;;;11.27;9.55;;;24.20;95.60;;;;;;5011790;28;20492;-44
2021/07/24 11:49:37;;;;;;;10.15;9.13;;;24.30;95.50;;;;;;5017625;28;20448;-41
2021/07/24 11:52:02;;;;;;;10.35;9.25;;;24.20;95.40;;;;;;5010162;28;20422;-42
2021/07/24 11:54:35;;;;;;;9.90;8.57;;;24.20;95.40;;;;;;5020365;28;20508;-44
2021/07/24 11:57:05;;;;;;;9.63;8.70;;;24.30;95.50;;;;;;5010989;28;20075;-43
2021/07/24 11:59:32;;;;;;;11.90;9.10;;;24.30;95.50;;;;;;5019032;28;20028;-43
2021/07/24 12:02:19;;;;;;;9.70;8.80;;;24.30;95.40;;;;;;5011036;28;20036;-41
2021/07/24 12:04:49;;;;;;;10.65;9.55;;;24.40;95.50;;;;;;5019365;28;20045;-44
2021/07/24 12:07:16;;;;;;;11.00;9.88;;;24.30;95.50;;;;;;5010764;28;20049;-42
2021/07/24 12:09:42;;;;;;;9.75;8.75;;;24.30;95.50;;;;;;5019888;28;20452;-43
2021/07/24 12:12:08;;;;;;;9.95;8.45;;;24.30;95.60;;;;;;5009204;28;20018;-43
2021/07/24 12:14:33;;;;;;;8.50;7.65;;;24.30;95.70;;;;;;5019664;28;20022;-42
2021/07/24 12:17:09;;;;;;;8.10;7.10;;;24.30;95.90;;;;;;5009750;28;20109;-36
2021/07/24 12:19:39;;;;;;;8.13;7.30;;;24.30;96.00;;;;;;5020155;28;20029;-42
2021/07/24 12:22:22;;;;;;;8.45;7.43;;;24.40;96.00;;;;;;5009573;28;20026;-39
2021/07/24 12:24:49;;;;;;;8.02;7.20;;;24.40;96.20;;;;;;5021953;28;20018;-40
2021/07/24 12:27:17;;;;;;;8.10;7.13;;;24.40;96.20;;;;;;5008851;28;20022;-41
2021/07/24 12:29:49;;;;;;;8.10;7.30;;;24.40;96.20;;;;;;5020547;28;20026;-40
2021/07/24 12:32:18;;;;;;;7.55;6.85;;;24.40;96.30;;;;;;5008646;28;20037;-45
2021/07/24 12:34:47;;;;;;;9.30;7.35;;;24.40;96.40;;;;;;5020343;28;20079;-43
2021/07/24 12:37:35;;;;;;;7.85;6.95;;;24.40;96.50;;;;;;4989697;28;20038;-43
2021/07/24 12:40:19;;;;;;;9.23;8.07;;;24.40;96.50;;;;;;5018216;28;20021;-42
2021/07/24 12:42:46;;;;;;;8.73;7.85;;;24.40;96.50;;;;;;5008899;28;20022;-44
2021/07/24 12:45:31;;;;;;;9.32;7.45;;;24.40;96.50;;;;;;5021236;28;20048;-44
2021/07/24 12:48:14;;;;;;;8.02;7.15;;;24.40;96.70;;;;;;5008653;28;20125;-42
2021/07/24 12:50:40;;;;;;;7.50;6.68;;;24.50;96.70;;;;;;5015484;28;20103;-45
2021/07/24 12:53:05;;;;;;;9.10;8.10;;;24.60;96.60;;;;;;5028698;28;20029;-45